createdAt,value
2023-04-22T00:01:05.871Z,0.70
2023-04-22T00:03:34.130Z,1.00
2023-04-22T00:06:01.650Z,0.70
2023-04-22T00:09:24.896Z,0.90
2023-04-22T00:12:45.142Z,0.80
2023-04-22T00:15:12.714Z,1.00
2023-04-22T00:17:40.607Z,1.00
2023-04-22T00:20:08.427Z,1.40
2023-04-22T00:22:35.253Z,1.30
2023-04-22T00:25:02.014Z,1.20
2023-04-22T00:27:28.945Z,0.82
2023-04-22T00:29:56.139Z,1.05
2023-04-22T00:32:22.926Z,0.75
2023-04-22T00:34:50.389Z,0.77
2023-04-22T00:37:17.290Z,0.80
2023-04-22T00:39:44.037Z,0.60
2023-04-22T00:42:11.657Z,0.80
2023-04-22T00:44:40.780Z,1.00
2023-04-22T00:47:08.876Z,0.77
2023-04-22T00:49:36.566Z,0.70
2023-04-22T00:52:04.075Z,0.80
2023-04-22T00:54:32.182Z,0.93
2023-04-22T00:56:59.166Z,0.60
2023-04-22T00:59:27.085Z,0.90
2023-04-22T01:01:54.179Z,1.70
2023-04-22T01:04:22.397Z,0.90
2023-04-22T01:06:54.277Z,1.02
2023-04-22T01:09:21.098Z,0.93
2023-04-22T01:11:48.294Z,0.75
2023-04-22T01:14:15.487Z,0.80
2023-04-22T01:16:43.855Z,0.85
2023-04-22T01:19:12.005Z,1.27
2023-04-22T01:21:40.994Z,0.70
2023-04-22T01:24:08.517Z,1.00
2023-04-22T01:26:36.756Z,1.10
2023-04-22T01:29:05.037Z,0.93
2023-04-22T01:31:32.816Z,0.80
2023-04-22T01:33:59.890Z,0.80
2023-04-22T01:36:27.297Z,0.65
2023-04-22T01:38:54.480Z,0.80
2023-04-22T01:41:21.448Z,0.88
2023-04-22T01:43:48.404Z,0.93
2023-04-22T01:47:14.596Z,0.82
2023-04-22T01:49:41.684Z,0.88
2023-04-22T01:52:09.181Z,1.10
2023-04-22T01:54:36.194Z,0.70
2023-04-22T01:57:10.483Z,0.95
2023-04-22T01:59:38.361Z,1.85
2023-04-22T02:02:05.515Z,1.60
2023-04-22T02:04:32.938Z,1.15
2023-04-22T02:07:00.341Z,1.38
2023-04-22T02:09:27.088Z,1.10
2023-04-22T02:11:53.755Z,0.88
2023-04-22T02:14:21.726Z,0.65
2023-04-22T02:16:48.660Z,0.82
2023-04-22T02:19:16.800Z,0.90
2023-04-22T02:21:43.605Z,0.90
2023-04-22T02:24:10.474Z,0.95
2023-04-22T02:26:37.325Z,0.90
2023-04-22T02:29:04.623Z,0.80
2023-04-22T02:31:31.814Z,0.82
2023-04-22T02:33:58.766Z,1.15
2023-04-22T02:36:27.805Z,0.90
2023-04-22T02:38:55.316Z,0.90
2023-04-22T02:41:22.063Z,0.73
2023-04-22T02:43:49.142Z,0.90
2023-04-22T02:46:16.628Z,1.10
2023-04-22T02:48:43.759Z,0.82
2023-04-22T02:51:11.088Z,1.20
2023-04-22T02:53:38.009Z,0.98
2023-04-22T02:56:05.758Z,0.80
2023-04-22T02:58:32.724Z,1.00
2023-04-22T03:00:59.672Z,1.40
2023-04-22T03:03:27.087Z,0.90
2023-04-22T03:05:54.214Z,0.95
2023-04-22T03:08:21.049Z,0.70
2023-04-22T03:10:48.495Z,0.93
2023-04-22T03:13:15.316Z,1.02
2023-04-22T03:15:43.081Z,1.02
2023-04-22T03:18:09.970Z,0.90
2023-04-22T03:20:37.001Z,1.10
2023-04-22T03:23:04.307Z,1.40
2023-04-22T03:25:31.169Z,1.30
2023-04-22T03:27:58.242Z,1.45
2023-04-22T03:30:25.841Z,0.90
2023-04-22T03:32:53.808Z,1.08
2023-04-22T03:35:25.137Z,1.40
2023-04-22T03:37:53.152Z,1.23
2023-04-22T03:40:28.212Z,1.25
2023-04-22T03:42:55.172Z,1.85
2023-04-22T03:45:22.616Z,1.00
2023-04-22T03:48:01.800Z,1.27
2023-04-22T03:50:37.475Z,1.52
2023-04-22T03:53:04.473Z,1.40
2023-04-22T03:55:31.394Z,1.55
2023-04-22T03:57:58.399Z,2.13
2023-04-22T04:00:25.530Z,1.55
2023-04-22T04:03:05.726Z,1.77
2023-04-22T04:05:32.740Z,1.23
2023-04-22T04:07:59.678Z,1.50
2023-04-22T04:10:26.748Z,1.63
2023-04-22T04:12:55.162Z,1.90
2023-04-22T04:15:23.681Z,1.67
2023-04-22T04:17:51.714Z,2.03
2023-04-22T04:20:20.242Z,1.50
2023-04-22T04:22:47.213Z,2.22
2023-04-22T04:25:14.392Z,1.88
2023-04-22T04:27:45.581Z,2.13
2023-04-22T04:30:14.986Z,1.95
2023-04-22T04:32:46.108Z,1.95
2023-04-22T04:35:15.565Z,1.90
2023-04-22T04:37:46.905Z,2.10
2023-04-22T04:40:14.677Z,2.67
2023-04-22T04:42:47.065Z,2.33
2023-04-22T04:45:20.409Z,2.22
2023-04-22T04:47:50.855Z,2.38
2023-04-22T04:50:22.964Z,2.67
2023-04-22T04:52:50.837Z,2.33
2023-04-22T04:55:23.802Z,2.42
2023-04-22T04:57:51.347Z,2.15
2023-04-22T05:00:18.621Z,2.65
2023-04-22T05:02:46.373Z,2.05
2023-04-22T05:05:13.462Z,2.42
2023-04-22T05:07:42.167Z,2.65
2023-04-22T05:10:10.906Z,2.45
2023-04-22T05:12:38.184Z,2.47
2023-04-22T05:15:08.284Z,2.03
2023-04-22T05:17:36.748Z,2.10
2023-04-22T05:20:04.573Z,2.33
2023-04-22T05:22:31.588Z,2.42
2023-04-22T05:24:58.611Z,2.55
2023-04-22T05:27:25.715Z,2.92
2023-04-22T05:29:53.076Z,2.50
2023-04-22T05:32:25.344Z,3.00
2023-04-22T05:34:53.249Z,2.92
2023-04-22T05:37:20.060Z,2.63
2023-04-22T05:39:47.705Z,2.35
2023-04-22T05:42:15.081Z,2.58
2023-04-22T05:44:43.092Z,2.90
2023-04-22T05:47:10.020Z,2.72
2023-04-22T05:49:37.242Z,2.75
2023-04-22T05:52:22.765Z,2.75
2023-04-22T05:54:57.800Z,2.88
2023-04-22T05:57:25.045Z,3.10
2023-04-22T05:59:51.973Z,2.50
2023-04-22T06:02:19.334Z,2.70
2023-04-22T06:04:46.782Z,3.40
2023-04-22T06:07:13.940Z,2.85
2023-04-22T06:09:41.011Z,3.08
2023-04-22T06:12:08.603Z,2.42
2023-04-22T06:14:36.045Z,2.45
2023-04-22T06:17:03.979Z,2.40
2023-04-22T06:19:30.763Z,2.67
2023-04-22T06:21:57.809Z,2.28
2023-04-22T06:24:24.764Z,2.00
2023-04-22T06:26:54.171Z,2.80
2023-04-22T06:29:21.182Z,2.63
2023-04-22T06:31:49.566Z,2.42
2023-04-22T06:34:23.884Z,2.65
2023-04-22T06:36:53.173Z,2.33
2023-04-22T06:39:20.319Z,2.15
2023-04-22T06:42:05.640Z,2.85
2023-04-22T06:44:58.319Z,2.40
2023-04-22T06:47:42.592Z,2.65
2023-04-22T06:50:13.638Z,2.28
2023-04-22T06:52:47.486Z,2.13
2023-04-22T06:55:14.628Z,2.28
2023-04-22T06:57:41.956Z,2.30
2023-04-22T07:00:09.623Z,2.55
2023-04-22T07:02:39.227Z,1.70
2023-04-22T07:05:06.583Z,2.30
2023-04-22T07:07:33.766Z,2.03
2023-04-22T07:10:01.504Z,2.25
2023-04-22T07:12:34.938Z,1.85
2023-04-22T07:15:01.694Z,2.38
2023-04-22T07:17:28.572Z,2.17
2023-04-22T07:19:55.293Z,2.60
2023-04-22T07:22:25.695Z,2.33
2023-04-22T07:24:52.437Z,1.95
2023-04-22T07:27:19.899Z,1.55
2023-04-22T07:29:47.004Z,1.63
2023-04-22T07:32:15.653Z,1.83
2023-04-22T07:34:42.486Z,2.08
2023-04-22T07:37:09.811Z,1.75
2023-04-22T07:39:36.716Z,1.85
2023-04-22T07:42:04.075Z,2.50
2023-04-22T07:44:31.273Z,1.98
2023-04-22T07:46:59.152Z,1.45
2023-04-22T07:49:26.128Z,1.88
2023-04-22T07:51:53.196Z,2.55
2023-04-22T07:54:20.133Z,1.98
2023-04-22T07:56:46.877Z,1.95
2023-04-22T07:59:13.743Z,1.80
2023-04-22T08:01:40.728Z,2.00
2023-04-22T08:04:08.142Z,1.25
2023-04-22T08:06:35.537Z,1.65
2023-04-22T08:09:02.353Z,1.73
2023-04-22T08:11:29.165Z,1.55
2023-04-22T08:13:55.919Z,1.63
2023-04-22T08:16:22.903Z,1.75
2023-04-22T08:18:49.938Z,1.52
2023-04-22T08:21:16.916Z,1.52
2023-04-22T08:23:43.752Z,1.42
2023-04-22T08:26:15.059Z,1.75
2023-04-22T08:28:42.778Z,1.77
2023-04-22T08:31:10.953Z,1.90
2023-04-22T08:33:37.754Z,1.83
2023-04-22T08:36:04.682Z,1.45
2023-04-22T08:38:31.667Z,1.92
2023-04-22T08:40:59.198Z,1.48
2023-04-22T08:43:27.072Z,1.98
2023-04-22T08:45:53.888Z,1.30
2023-04-22T08:48:20.681Z,1.20
2023-04-22T08:50:48.650Z,2.00
2023-04-22T08:53:15.634Z,1.42
2023-04-22T08:55:45.929Z,1.63
2023-04-22T08:58:13.076Z,1.42
2023-04-22T09:00:43.200Z,1.50
2023-04-22T09:03:10.786Z,1.42
2023-04-22T09:05:39.838Z,1.20
2023-04-22T09:08:08.097Z,1.55
2023-04-22T09:10:38.784Z,1.63
2023-04-22T09:13:06.872Z,1.17
2023-04-22T09:15:34.230Z,1.67
2023-04-22T09:18:05.687Z,1.15
2023-04-22T09:20:32.660Z,1.30
2023-04-22T09:23:04.229Z,1.50
2023-04-22T09:25:34.517Z,1.10
2023-04-22T09:28:02.030Z,1.40
2023-04-22T09:30:33.158Z,1.30
2023-04-22T09:33:04.985Z,1.13
2023-04-22T09:35:32.065Z,1.75
2023-04-22T09:38:01.085Z,1.50
2023-04-22T09:40:29.070Z,1.85
2023-04-22T09:42:58.737Z,1.30
2023-04-22T09:45:37.376Z,1.35
2023-04-22T09:48:09.524Z,1.20
2023-04-22T09:50:41.150Z,1.00
2023-04-22T09:53:09.469Z,0.95
2023-04-22T09:55:39.194Z,1.35
2023-04-22T09:58:11.301Z,1.10
2023-04-22T10:00:44.907Z,1.00
2023-04-22T10:05:39.008Z,1.02
2023-04-22T10:08:07.232Z,0.82
2023-04-22T10:10:34.916Z,1.00
2023-04-22T10:13:04.365Z,0.85
2023-04-22T10:15:37.723Z,0.77
2023-04-22T10:18:07.707Z,0.90
2023-04-22T10:20:38.385Z,0.90
2023-04-22T10:23:06.565Z,1.10
2023-04-22T10:25:33.455Z,0.75
2023-04-22T10:28:05.390Z,0.88
2023-04-22T10:30:37.998Z,0.85
2023-04-22T10:33:34.042Z,0.73
2023-04-22T10:36:15.993Z,0.70
2023-04-22T10:39:02.794Z,0.73
2023-04-22T10:41:31.466Z,0.70
2023-04-22T10:44:06.197Z,1.23
2023-04-22T10:46:33.059Z,0.77
2023-04-22T10:49:23.055Z,1.30
2023-04-22T10:52:01.094Z,0.93
2023-04-22T10:54:31.106Z,1.00
2023-04-22T10:57:06.785Z,1.15
2023-04-22T10:59:58.515Z,0.85
2023-04-22T11:02:26.250Z,1.17
2023-04-22T11:05:25.850Z,1.08
2023-04-22T11:08:02.181Z,0.90
2023-04-22T11:10:35.808Z,0.68
2023-04-22T11:13:03.408Z,1.13
2023-04-22T11:15:33.383Z,1.17
2023-04-22T11:18:00.682Z,1.02
2023-04-22T11:20:28.837Z,0.90
2023-04-22T11:22:56.969Z,0.90
2023-04-22T11:25:25.237Z,0.70
2023-04-22T11:27:53.488Z,0.98
2023-04-22T11:30:27.095Z,0.82
2023-04-22T11:33:01.073Z,0.80
2023-04-22T11:36:00.459Z,1.42
2023-04-22T11:38:31.917Z,0.95
2023-04-22T11:40:58.817Z,0.98
2023-04-22T11:43:26.360Z,1.05
2023-04-22T11:45:56.044Z,0.88
2023-04-22T11:48:23.101Z,0.82
2023-04-22T11:50:51.603Z,1.10
2023-04-22T11:53:23.917Z,0.80
2023-04-22T11:55:52.398Z,0.80
2023-04-22T11:58:27.536Z,0.73
2023-04-22T12:00:57.812Z,0.95
2023-04-22T12:03:27.295Z,0.82
2023-04-22T12:05:57.697Z,0.70
2023-04-22T12:08:36.926Z,1.02
2023-04-22T12:11:13.317Z,0.85
2023-04-22T12:13:46.473Z,0.70
2023-04-22T12:16:15.517Z,1.10
2023-04-22T12:18:53.847Z,1.02
2023-04-22T12:21:24.039Z,0.70
2023-04-22T12:23:54.969Z,0.85
2023-04-22T12:26:26.642Z,0.90
2023-04-22T12:28:55.014Z,0.90
2023-04-22T12:31:26.050Z,0.90
2023-04-22T12:33:54.263Z,1.10
2023-04-22T12:36:21.742Z,0.80
2023-04-22T12:38:55.172Z,0.80
2023-04-22T12:43:52.989Z,1.27
2023-04-22T12:46:20.122Z,0.80
2023-04-22T12:48:47.305Z,0.93
2023-04-22T12:51:15.170Z,0.63
2023-04-22T12:53:42.593Z,0.80
2023-04-22T12:56:15.815Z,0.98
2023-04-22T12:58:48.247Z,0.93
2023-04-22T13:01:21.001Z,0.70
2023-04-22T13:03:53.879Z,0.82
2023-04-22T13:06:25.034Z,0.90
2023-04-22T13:08:52.808Z,1.15
2023-04-22T13:11:22.824Z,0.82
2023-04-22T13:13:49.922Z,0.68
2023-04-22T13:16:22.224Z,0.50
2023-04-22T13:18:49.021Z,0.88
2023-04-22T13:21:16.141Z,0.60
2023-04-22T13:23:44.191Z,0.68
2023-04-22T13:26:11.765Z,0.85
2023-04-22T13:29:05.882Z,0.70
2023-04-22T13:31:57.949Z,0.70
2023-04-22T13:34:35.404Z,0.90
2023-04-22T13:37:05.807Z,1.17
2023-04-22T13:39:41.844Z,0.70
2023-04-22T13:42:17.759Z,1.20
2023-04-22T13:44:44.626Z,0.70
2023-04-22T13:47:11.722Z,1.33
2023-04-22T13:49:38.748Z,0.65
2023-04-22T13:52:05.713Z,0.52
2023-04-22T13:54:32.837Z,0.73
2023-04-22T13:57:16.268Z,0.80
2023-04-22T14:00:46.731Z,0.85
2023-04-22T14:03:14.281Z,0.90
2023-04-22T14:05:41.630Z,0.70
2023-04-22T14:08:08.642Z,0.80
2023-04-22T14:10:35.581Z,0.73
2023-04-22T14:13:11.694Z,0.88
2023-04-22T14:16:48.311Z,1.73
2023-04-22T14:19:16.029Z,0.60
2023-04-22T14:21:43.181Z,0.88
2023-04-22T14:24:10.033Z,1.17
2023-04-22T14:27:06.838Z,0.73
2023-04-22T14:29:34.035Z,0.68
2023-04-22T14:32:03.445Z,1.27
2023-04-22T14:34:30.778Z,0.73
2023-04-22T14:36:57.992Z,1.08
2023-04-22T14:39:25.215Z,0.90
2023-04-22T14:41:52.554Z,0.98
2023-04-22T14:44:23.082Z,0.80
2023-04-22T14:46:53.364Z,1.10
2023-04-22T14:49:23.004Z,0.77
2023-04-22T14:51:50.285Z,0.70
2023-04-22T14:54:17.374Z,0.68
2023-04-22T14:56:44.801Z,2.05
2023-04-22T14:59:11.882Z,0.98
2023-04-22T15:01:41.876Z,0.95
2023-04-22T15:04:11.881Z,0.77
2023-04-22T15:06:39.116Z,1.13
2023-04-22T15:09:06.459Z,1.05
2023-04-22T15:11:33.812Z,0.80
2023-04-22T15:14:00.828Z,1.10
2023-04-22T15:16:28.058Z,0.80
2023-04-22T15:18:55.349Z,1.15
2023-04-22T15:21:27.752Z,1.20
2023-04-22T15:23:57.264Z,0.70
2023-04-22T15:26:24.962Z,1.10
2023-04-22T15:29:03.291Z,0.73
2023-04-22T15:31:34.607Z,1.10
2023-04-22T15:34:07.769Z,1.55
2023-04-22T15:36:34.804Z,1.38
2023-04-22T15:39:01.788Z,1.15
2023-04-22T15:41:28.789Z,1.40
2023-04-22T15:43:56.111Z,0.90
2023-04-22T15:46:23.711Z,1.05
2023-04-22T15:48:50.739Z,1.27
2023-04-22T15:51:21.376Z,1.13
2023-04-22T15:53:48.839Z,1.10
2023-04-22T15:56:17.310Z,0.77
2023-04-22T15:58:44.782Z,0.88
2023-04-22T16:01:19.307Z,0.95
2023-04-22T16:03:48.392Z,1.00
2023-04-22T16:06:16.633Z,0.98
2023-04-22T16:08:46.404Z,2.08
2023-04-22T16:11:15.639Z,0.77
2023-04-22T16:13:43.068Z,1.08
2023-04-22T16:16:11.166Z,1.00
2023-04-22T16:18:38.244Z,0.85
2023-04-22T16:21:05.930Z,1.20
2023-04-22T16:23:34.912Z,1.20
2023-04-22T16:26:06.016Z,1.13
2023-04-22T16:28:33.141Z,1.08
2023-04-22T16:31:00.747Z,0.73
2023-04-22T16:33:28.308Z,0.80
2023-04-22T16:35:55.125Z,0.95
2023-04-22T16:38:22.135Z,1.00
2023-04-22T16:40:54.505Z,1.05
2023-04-22T16:43:21.967Z,1.00
2023-04-22T16:45:49.044Z,1.00
2023-04-22T16:48:19.986Z,0.80
2023-04-22T16:50:46.987Z,0.70
2023-04-22T16:53:13.937Z,0.57
2023-04-22T16:55:41.457Z,1.10
2023-04-22T16:58:08.303Z,1.10
2023-04-22T17:00:34.930Z,0.90
2023-04-22T17:03:02.225Z,0.90
2023-04-22T17:05:29.325Z,0.95
2023-04-22T17:07:56.070Z,1.35
2023-04-22T17:10:22.810Z,1.08
2023-04-22T17:12:49.764Z,0.77
2023-04-22T17:15:16.863Z,1.05
2023-04-22T17:17:45.647Z,1.42
2023-04-22T17:20:12.347Z,1.10
2023-04-22T17:22:39.448Z,0.80
2023-04-22T17:25:06.710Z,1.10
2023-04-22T17:27:33.346Z,1.25
2023-04-22T17:30:00.214Z,1.63
2023-04-22T17:32:27.092Z,0.88
2023-04-22T17:34:53.750Z,1.33
2023-04-22T17:37:21.512Z,0.98
2023-04-22T17:39:48.143Z,0.82
2023-04-22T17:42:14.918Z,1.00
2023-04-22T17:44:41.867Z,1.30
2023-04-22T17:47:13.100Z,1.05
2023-04-22T17:49:39.967Z,0.73
2023-04-22T17:52:06.971Z,0.77
2023-04-22T17:54:33.603Z,0.60
2023-04-22T17:57:00.389Z,0.85
2023-04-22T17:59:26.951Z,1.00
2023-04-22T18:01:53.624Z,1.00
2023-04-22T18:04:21.093Z,0.60
2023-04-22T18:06:47.747Z,0.80
2023-04-22T18:09:14.434Z,0.85
2023-04-22T18:11:41.195Z,1.75
2023-04-22T18:14:08.122Z,1.23
2023-04-22T18:16:34.780Z,0.82
2023-04-22T18:19:02.728Z,1.15
2023-04-22T18:21:29.823Z,1.52
2023-04-22T18:23:56.497Z,3.20
2023-04-22T18:26:23.176Z,0.90
2023-04-22T18:28:49.937Z,1.75
2023-04-22T18:31:16.648Z,1.00
2023-04-22T18:33:43.275Z,0.93
2023-04-22T18:36:10.351Z,1.60
2023-04-22T18:38:38.794Z,1.33
2023-04-22T18:41:05.938Z,1.85
2023-04-22T18:43:32.884Z,1.10
2023-04-22T18:45:59.569Z,1.30
2023-04-22T18:48:26.300Z,1.40
2023-04-22T18:50:53.116Z,1.17
2023-04-22T18:53:19.935Z,0.90
2023-04-22T18:55:47.170Z,1.30
2023-04-22T18:58:13.861Z,0.60
2023-04-22T19:00:40.886Z,0.70
2023-04-22T19:03:07.903Z,0.75
2023-04-22T19:05:34.889Z,0.88
2023-04-22T19:08:01.637Z,1.15
2023-04-22T19:10:28.365Z,1.02
2023-04-22T19:12:54.989Z,0.70
2023-04-22T19:15:21.846Z,1.92
2023-04-22T19:17:48.683Z,1.23
2023-04-22T19:20:15.497Z,1.00
2023-04-22T19:22:42.507Z,0.77
2023-04-22T19:25:09.779Z,1.17
2023-04-22T19:27:39.143Z,0.90
2023-04-22T19:30:06.731Z,1.13
2023-04-22T19:32:33.699Z,0.85
2023-04-22T19:35:03.744Z,0.90
2023-04-22T19:37:30.953Z,1.13
2023-04-22T19:39:57.950Z,0.93
2023-04-22T19:42:27.992Z,0.93
2023-04-22T19:44:56.055Z,1.30
2023-04-22T19:47:23.090Z,0.80
2023-04-22T19:49:50.424Z,1.00
2023-04-22T19:52:17.676Z,0.90
2023-04-22T19:54:47.956Z,0.70
2023-04-22T19:57:15.875Z,0.82
2023-04-22T19:59:43.697Z,0.93
2023-04-22T20:02:11.344Z,0.95
2023-04-22T20:04:38.891Z,0.85
2023-04-22T20:07:06.993Z,1.00
2023-04-22T20:09:35.047Z,1.10
2023-04-22T20:12:02.989Z,0.77
2023-04-22T20:14:31.616Z,1.17
2023-04-22T20:16:58.477Z,1.10
2023-04-22T20:19:25.677Z,0.70
2023-04-22T20:21:55.244Z,0.82
2023-04-22T20:24:22.072Z,1.40
2023-04-22T20:26:49.670Z,1.13
2023-04-22T20:29:21.405Z,1.35
2023-04-22T20:31:48.610Z,0.90
2023-04-22T20:34:15.697Z,1.00
2023-04-22T20:36:43.136Z,1.25
2023-04-22T20:39:14.191Z,0.98
2023-04-22T20:41:41.422Z,0.47
2023-04-22T20:44:08.582Z,1.10
2023-04-22T20:46:35.854Z,0.90
2023-04-22T20:49:02.552Z,0.98
2023-04-22T20:51:29.331Z,1.10
2023-04-22T20:53:56.529Z,1.02
2023-04-22T20:56:24.942Z,0.93
2023-04-22T20:58:51.853Z,0.90
2023-04-22T21:01:19.628Z,1.30
2023-04-22T21:03:51.443Z,1.00
2023-04-22T21:06:20.017Z,0.80
2023-04-22T21:08:48.941Z,0.85
2023-04-22T21:11:16.287Z,0.93
2023-04-22T21:13:46.264Z,0.90
2023-04-22T21:16:13.864Z,0.93
2023-04-22T21:18:44.645Z,0.98
2023-04-22T21:21:15.434Z,1.60
2023-04-22T21:23:42.449Z,1.10
2023-04-22T21:26:10.136Z,0.80
2023-04-22T21:28:37.378Z,0.90
2023-04-22T21:31:04.567Z,1.23
2023-04-22T21:33:33.071Z,1.05
2023-04-22T21:35:59.944Z,1.05
2023-04-22T21:38:26.881Z,0.90
2023-04-22T21:40:53.657Z,0.82
2023-04-22T21:43:20.287Z,1.08
2023-04-22T21:45:47.025Z,1.33
2023-04-22T21:48:13.759Z,0.80
2023-04-22T21:50:40.397Z,0.70
2023-04-22T21:53:07.395Z,0.90
2023-04-22T21:55:34.122Z,1.15
2023-04-22T21:58:01.122Z,0.90
2023-04-22T22:00:27.925Z,0.80
2023-04-22T22:02:54.998Z,0.63
2023-04-22T22:05:21.851Z,1.10
2023-04-22T22:07:49.001Z,1.20
2023-04-22T22:10:22.004Z,0.93
2023-04-22T22:12:48.952Z,0.90
2023-04-22T22:15:19.130Z,0.95
2023-04-22T22:17:46.176Z,1.13
2023-04-22T22:20:20.169Z,0.75
2023-04-22T22:22:47.842Z,0.95
2023-04-22T22:25:15.960Z,0.77
2023-04-22T22:27:47.004Z,0.50
2023-04-22T22:30:14.627Z,1.65
2023-04-22T22:32:48.104Z,0.90
2023-04-22T22:35:15.149Z,1.25
2023-04-22T22:37:41.935Z,1.20
2023-04-22T22:40:09.584Z,1.20
2023-04-22T22:42:36.321Z,1.15
2023-04-22T22:45:05.533Z,1.40
2023-04-22T22:47:32.527Z,1.00
2023-04-22T22:49:59.417Z,1.40
2023-04-22T22:52:26.148Z,1.13
2023-04-22T22:54:52.865Z,1.23
2023-04-22T22:57:19.814Z,1.10
2023-04-22T22:59:46.810Z,0.90
2023-04-22T23:02:14.411Z,1.00
2023-04-22T23:04:42.214Z,1.35
2023-04-22T23:07:09.314Z,0.82
2023-04-22T23:09:36.132Z,1.05
2023-04-22T23:12:02.986Z,1.05
2023-04-22T23:14:30.079Z,1.20
2023-04-22T23:16:56.844Z,1.23
2023-04-22T23:19:24.024Z,1.10
2023-04-22T23:21:51.486Z,1.30
2023-04-22T23:24:18.457Z,1.00
2023-04-22T23:26:45.880Z,1.75
2023-04-22T23:29:13.067Z,1.42
2023-04-22T23:31:41.708Z,1.15
2023-04-22T23:34:09.339Z,1.38
2023-04-22T23:36:37.363Z,1.48
2023-04-22T23:39:08.001Z,1.45
2023-04-22T23:41:34.787Z,1.27
2023-04-22T23:44:01.630Z,1.40
2023-04-22T23:46:28.553Z,1.38
2023-04-22T23:48:55.505Z,1.30
2023-04-22T23:51:22.662Z,1.83
2023-04-22T23:53:49.398Z,1.40
2023-04-22T23:56:20.304Z,1.27
2023-04-22T23:58:48.119Z,0.82
